createdAt,value
2023-11-25T00:00:29.457Z,43.18
2023-11-25T00:03:56.772Z,48.50
2023-11-25T00:04:56.741Z,48.50
2023-11-25T00:05:56.752Z,49.63
2023-11-25T00:06:56.717Z,50.76
2023-11-25T00:07:56.682Z,60.42
2023-11-25T00:08:56.685Z,42.54
2023-11-25T00:09:56.823Z,42.22
2023-11-25T00:13:24.802Z,48.50
2023-11-25T00:17:02.611Z,44.15
2023-11-25T00:18:02.536Z,55.43
2023-11-25T00:21:29.486Z,48.66
2023-11-25T00:22:29.557Z,48.98
2023-11-25T00:25:56.536Z,59.46
2023-11-25T00:26:56.551Z,49.95
2023-11-25T00:30:23.412Z,53.50
2023-11-25T00:31:32.564Z,48.50
2023-11-25T00:32:23.477Z,48.66
2023-11-25T00:35:50.369Z,42.38
2023-11-25T00:36:50.412Z,48.18
2023-11-25T00:37:50.400Z,48.02
2023-11-25T00:38:50.388Z,48.18
2023-11-25T00:39:50.474Z,48.66
2023-11-25T00:40:50.442Z,48.18
2023-11-25T00:41:50.344Z,40.93
2023-11-25T00:42:50.487Z,55.59
2023-11-25T00:43:50.347Z,49.95
2023-11-25T00:47:18.469Z,60.91
2023-11-25T00:48:18.358Z,49.31
2023-11-25T00:49:18.501Z,48.34
2023-11-25T00:50:26.898Z,55.59
2023-11-25T00:51:18.356Z,48.82
2023-11-25T00:52:18.474Z,48.18
2023-11-25T00:53:18.308Z,48.50
2023-11-25T00:54:19.085Z,43.02
2023-11-25T00:57:45.313Z,58.33
2023-11-25T01:01:12.778Z,46.73
2023-11-25T01:02:12.201Z,48.02
2023-11-25T01:03:12.242Z,42.86
2023-11-25T01:04:12.190Z,47.21
2023-11-25T01:05:12.334Z,48.82
2023-11-25T01:08:39.097Z,46.89
2023-11-25T01:09:39.178Z,48.66
2023-11-25T01:10:39.132Z,48.82
2023-11-25T01:11:39.103Z,48.34
2023-11-25T01:12:39.097Z,48.66
2023-11-25T01:13:39.188Z,48.50
2023-11-25T01:14:39.112Z,48.66
2023-11-25T01:15:39.677Z,57.04
2023-11-25T01:16:39.115Z,48.34
2023-11-25T01:17:39.167Z,48.50
2023-11-25T01:18:39.007Z,48.50
2023-11-25T01:19:39.840Z,41.89
2023-11-25T01:20:39.992Z,48.34
2023-11-25T01:21:39.087Z,48.02
2023-11-25T01:22:39.022Z,47.86
2023-11-25T01:23:38.937Z,41.09
2023-11-25T01:24:38.950Z,41.57
2023-11-25T01:25:38.951Z,48.50
2023-11-25T01:26:39.670Z,47.37
2023-11-25T01:27:40.702Z,48.18
2023-11-25T01:28:39.129Z,48.66
2023-11-25T01:29:38.884Z,48.34
2023-11-25T01:30:38.859Z,40.93
2023-11-25T01:31:39.030Z,53.82
2023-11-25T01:32:48.275Z,53.33
2023-11-25T01:33:38.915Z,42.22
2023-11-25T01:34:38.919Z,48.18
2023-11-25T01:35:38.814Z,47.86
2023-11-25T01:36:38.831Z,47.21
2023-11-25T01:37:38.946Z,48.50
2023-11-25T01:38:38.806Z,55.75
2023-11-25T01:39:40.273Z,49.47
2023-11-25T01:43:05.818Z,41.89
2023-11-25T01:44:05.765Z,41.41
2023-11-25T01:45:05.742Z,47.21
2023-11-25T01:46:05.855Z,42.86
2023-11-25T01:47:05.785Z,41.89
2023-11-25T01:48:05.789Z,40.93
2023-11-25T01:49:05.730Z,56.24
2023-11-25T01:50:05.684Z,43.51
2023-11-25T01:51:05.669Z,45.28
2023-11-25T01:52:05.736Z,45.28
2023-11-25T01:53:05.670Z,42.06
2023-11-25T01:54:05.637Z,43.18
2023-11-25T01:55:05.665Z,43.67
2023-11-25T01:56:05.730Z,41.57
2023-11-25T01:57:05.602Z,42.54
2023-11-25T01:58:05.823Z,43.67
2023-11-25T01:59:05.585Z,43.02
2023-11-25T02:00:05.582Z,47.86
2023-11-25T02:01:05.634Z,43.18
2023-11-25T02:02:05.638Z,41.25
2023-11-25T02:03:05.671Z,43.51
2023-11-25T02:04:05.688Z,45.92
2023-11-25T02:05:05.627Z,42.54
2023-11-25T02:06:05.512Z,43.34
2023-11-25T02:07:05.629Z,42.06
2023-11-25T02:08:05.482Z,41.57
2023-11-25T02:09:05.479Z,60.10
2023-11-25T02:10:05.513Z,43.67
2023-11-25T02:11:05.458Z,41.89
2023-11-25T02:12:05.550Z,41.73
2023-11-25T02:13:05.454Z,44.15
2023-11-25T02:14:05.423Z,60.59
2023-11-25T02:15:05.418Z,56.07
2023-11-25T02:16:06.393Z,56.40
2023-11-25T02:17:05.517Z,41.09
2023-11-25T02:18:05.523Z,41.09
2023-11-25T02:19:05.415Z,40.61
2023-11-25T02:20:05.393Z,40.44
2023-11-25T02:21:05.374Z,41.09
2023-11-25T02:22:05.418Z,40.93
2023-11-25T02:23:05.344Z,41.09
2023-11-25T02:24:05.317Z,41.41
2023-11-25T02:25:05.357Z,42.38
2023-11-25T02:26:05.488Z,57.85
2023-11-25T02:27:05.312Z,44.47
2023-11-25T02:28:05.386Z,47.53
2023-11-25T02:29:05.329Z,65.10
2023-11-25T02:30:05.292Z,41.89
2023-11-25T02:31:05.411Z,41.89
2023-11-25T02:32:05.337Z,42.38
2023-11-25T02:33:05.282Z,42.22
2023-11-25T02:34:05.315Z,41.41
2023-11-25T02:35:05.233Z,42.22
2023-11-25T02:36:05.212Z,43.18
2023-11-25T02:37:05.279Z,41.09
2023-11-25T02:38:05.183Z,41.73
2023-11-25T02:39:05.196Z,41.73
2023-11-25T02:40:05.242Z,41.09
2023-11-25T02:41:05.171Z,41.57
2023-11-25T02:42:05.138Z,42.22
2023-11-25T02:43:05.161Z,42.70
2023-11-25T02:44:05.332Z,41.89
2023-11-25T02:45:05.172Z,42.70
2023-11-25T02:46:05.119Z,42.86
2023-11-25T02:47:05.094Z,44.96
2023-11-25T02:48:05.125Z,43.18
2023-11-25T02:49:05.083Z,42.54
2023-11-25T02:50:05.072Z,46.08
2023-11-25T02:51:05.064Z,46.57
2023-11-25T02:52:05.039Z,42.70
2023-11-25T02:53:05.030Z,41.25
2023-11-25T02:54:05.032Z,42.06
2023-11-25T02:55:05.005Z,41.09
2023-11-25T02:56:04.997Z,41.73
2023-11-25T02:57:04.979Z,41.89
2023-11-25T02:58:05.028Z,43.67
2023-11-25T02:59:04.988Z,41.41
2023-11-25T03:00:04.979Z,40.93
2023-11-25T03:01:04.942Z,41.89
2023-11-25T03:02:04.995Z,41.57
2023-11-25T03:03:05.028Z,41.73
2023-11-25T03:04:04.951Z,41.89
2023-11-25T03:05:04.898Z,42.22
2023-11-25T03:06:04.886Z,41.57
2023-11-25T03:07:04.884Z,41.73
2023-11-25T03:08:04.876Z,41.57
2023-11-25T03:09:04.891Z,42.22
2023-11-25T03:10:04.838Z,42.06
2023-11-25T03:11:04.827Z,41.73
2023-11-25T03:12:04.870Z,44.31
2023-11-25T03:13:04.829Z,44.79
2023-11-25T03:14:04.791Z,41.73
2023-11-25T03:15:04.793Z,42.22
2023-11-25T03:16:04.829Z,42.38
2023-11-25T03:17:04.906Z,41.89
2023-11-25T03:18:04.796Z,43.34
2023-11-25T03:19:04.747Z,43.02
2023-11-25T03:20:04.735Z,41.89
2023-11-25T03:21:04.743Z,42.06
2023-11-25T03:22:04.774Z,43.67
2023-11-25T03:23:04.718Z,42.22
2023-11-25T03:24:04.700Z,41.89
2023-11-25T03:25:04.692Z,42.54
2023-11-25T03:26:04.671Z,42.54
2023-11-25T03:27:04.671Z,42.22
2023-11-25T03:28:04.654Z,44.15
2023-11-25T03:29:04.647Z,44.96
2023-11-25T03:30:04.621Z,42.54
2023-11-25T03:31:04.636Z,42.38
2023-11-25T03:32:04.764Z,42.06
2023-11-25T03:33:04.657Z,42.06
2023-11-25T03:34:04.589Z,42.70
2023-11-25T03:35:04.574Z,41.09
2023-11-25T03:36:04.568Z,42.22
2023-11-25T03:37:04.550Z,41.89
2023-11-25T03:38:04.534Z,42.22
2023-11-25T03:39:04.533Z,41.89
2023-11-25T03:40:04.526Z,41.25
2023-11-25T03:41:04.523Z,56.88
2023-11-25T03:42:04.530Z,49.63
2023-11-25T03:43:04.499Z,42.54
2023-11-25T03:44:04.469Z,44.63
2023-11-25T03:45:04.490Z,42.06
2023-11-25T03:46:04.505Z,42.38
2023-11-25T03:47:04.555Z,42.06
2023-11-25T03:48:04.531Z,41.89
2023-11-25T03:49:04.436Z,41.41
2023-11-25T03:50:04.429Z,41.89
2023-11-25T03:51:04.415Z,62.20
2023-11-25T03:52:04.393Z,42.86
2023-11-25T03:53:04.398Z,41.89
2023-11-25T03:54:04.414Z,41.73
2023-11-25T03:55:04.406Z,41.41
2023-11-25T03:56:04.375Z,42.22
2023-11-25T03:57:04.348Z,41.73
2023-11-25T03:58:04.341Z,43.34
2023-11-25T03:59:04.334Z,63.00
2023-11-25T04:00:04.321Z,42.54
2023-11-25T04:01:04.301Z,62.04
2023-11-25T04:02:04.452Z,43.18
2023-11-25T04:03:04.605Z,42.70
2023-11-25T04:04:04.339Z,43.67
2023-11-25T04:05:04.332Z,42.38
2023-11-25T04:06:04.242Z,42.22
2023-11-25T04:07:04.247Z,42.54
2023-11-25T04:08:04.224Z,41.89
2023-11-25T04:09:04.234Z,42.70
2023-11-25T04:10:04.206Z,42.86
2023-11-25T04:11:06.184Z,42.86
2023-11-25T04:12:04.210Z,43.02
2023-11-25T04:13:04.175Z,42.06
2023-11-25T04:14:04.172Z,42.86
2023-11-25T04:15:04.176Z,60.75
2023-11-25T04:16:04.145Z,44.15
2023-11-25T04:17:04.316Z,43.18
2023-11-25T04:18:04.173Z,48.18
2023-11-25T04:19:04.137Z,66.71
2023-11-25T04:20:04.116Z,60.42
2023-11-25T04:21:04.111Z,43.83
2023-11-25T04:22:04.083Z,52.85
2023-11-25T04:23:04.086Z,43.83
2023-11-25T04:24:04.084Z,67.03
2023-11-25T04:25:04.045Z,57.52
2023-11-25T04:26:04.035Z,59.30
2023-11-25T04:27:04.031Z,43.02
2023-11-25T04:28:04.032Z,43.18
2023-11-25T04:29:04.010Z,42.22
2023-11-25T04:30:03.993Z,43.99
2023-11-25T04:31:03.982Z,44.79
2023-11-25T04:32:04.049Z,43.99
2023-11-25T04:33:04.059Z,43.51
2023-11-25T04:34:03.962Z,43.99
2023-11-25T04:35:03.945Z,43.18
2023-11-25T04:36:03.936Z,45.28
2023-11-25T04:37:03.924Z,58.81
2023-11-25T04:38:03.927Z,59.62
2023-11-25T04:39:03.915Z,55.43
2023-11-25T04:40:03.892Z,46.73
2023-11-25T04:41:03.976Z,59.62
2023-11-25T04:42:03.904Z,43.18
2023-11-25T04:43:03.889Z,42.54
2023-11-25T04:44:03.854Z,43.83
2023-11-25T04:45:03.834Z,43.02
2023-11-25T04:46:03.822Z,43.02
2023-11-25T04:47:03.878Z,45.60
2023-11-25T04:48:03.816Z,45.12
2023-11-25T04:49:03.793Z,43.67
2023-11-25T04:50:03.800Z,42.70
2023-11-25T04:51:03.777Z,42.70
2023-11-25T04:52:03.780Z,43.02
2023-11-25T04:53:03.762Z,43.51
2023-11-25T04:54:03.764Z,43.18
2023-11-25T04:55:03.734Z,44.31
2023-11-25T04:56:03.735Z,44.47
2023-11-25T04:57:03.717Z,58.17
2023-11-25T04:58:03.700Z,43.51
2023-11-25T04:59:03.685Z,43.51
2023-11-25T05:00:03.677Z,60.26
2023-11-25T05:01:03.721Z,43.34
2023-11-25T05:02:03.741Z,42.86
2023-11-25T05:03:03.677Z,63.00
2023-11-25T05:04:03.640Z,60.75
2023-11-25T05:05:03.627Z,59.46
2023-11-25T05:06:03.713Z,59.14
2023-11-25T05:07:03.636Z,59.46
2023-11-25T05:08:03.596Z,50.11
2023-11-25T05:09:03.585Z,59.46
2023-11-25T05:10:03.633Z,44.96
2023-11-25T05:11:03.586Z,47.05
2023-11-25T05:12:03.561Z,47.05
2023-11-25T05:13:03.558Z,61.71
2023-11-25T05:14:03.536Z,60.91
2023-11-25T05:15:03.549Z,58.01
2023-11-25T05:16:03.583Z,49.95
2023-11-25T05:17:03.569Z,60.75
2023-11-25T05:18:03.521Z,56.72
2023-11-25T05:19:03.505Z,60.26
2023-11-25T05:20:03.523Z,49.15
2023-11-25T05:21:03.510Z,45.76
2023-11-25T05:22:03.524Z,46.41
2023-11-25T05:23:06.348Z,57.04
2023-11-25T05:24:03.532Z,46.25
2023-11-25T05:25:03.523Z,60.42
2023-11-25T05:26:03.509Z,53.33
2023-11-25T05:27:03.406Z,61.71
2023-11-25T05:28:03.408Z,45.28
2023-11-25T05:29:04.411Z,44.79
2023-11-25T05:30:03.373Z,47.05
2023-11-25T05:31:03.395Z,45.28
2023-11-25T05:32:03.432Z,59.30
2023-11-25T05:33:03.411Z,59.14
2023-11-25T05:34:03.344Z,45.60
2023-11-25T05:35:03.328Z,60.26
2023-11-25T05:36:03.314Z,47.05
2023-11-25T05:37:03.296Z,48.98
2023-11-25T05:38:03.304Z,45.28
2023-11-25T05:39:03.289Z,46.41
2023-11-25T05:40:03.284Z,63.00
2023-11-25T05:41:03.253Z,47.70
2023-11-25T05:42:03.246Z,44.96
2023-11-25T05:43:05.682Z,46.57
2023-11-25T05:44:03.231Z,46.08
2023-11-25T05:45:03.209Z,49.15
2023-11-25T05:46:03.221Z,49.47
2023-11-25T05:47:03.277Z,64.94
2023-11-25T05:48:03.211Z,45.28
2023-11-25T05:49:03.169Z,54.46
2023-11-25T05:50:03.158Z,60.10
2023-11-25T05:51:03.194Z,61.23
2023-11-25T05:52:03.153Z,48.98
2023-11-25T05:53:03.140Z,59.78
2023-11-25T05:54:03.131Z,56.56
2023-11-25T05:55:03.141Z,60.42
2023-11-25T05:56:03.106Z,51.72
2023-11-25T05:57:03.115Z,45.60
2023-11-25T05:58:03.075Z,44.96
2023-11-25T05:59:03.077Z,46.25
2023-11-25T06:00:03.063Z,58.97
2023-11-25T06:01:03.046Z,64.29
2023-11-25T06:02:03.118Z,62.68
2023-11-25T06:03:03.036Z,59.94
2023-11-25T06:04:03.073Z,57.85
2023-11-25T06:05:03.087Z,61.07
2023-11-25T06:06:03.007Z,50.76
2023-11-25T06:07:03.017Z,64.94
2023-11-25T06:08:02.979Z,45.76
2023-11-25T06:09:02.965Z,47.21
2023-11-25T06:10:02.977Z,46.41
2023-11-25T06:11:03.026Z,46.41
2023-11-25T06:12:02.951Z,45.44
2023-11-25T06:13:02.920Z,56.24
2023-11-25T06:14:02.915Z,58.81
2023-11-25T06:15:02.919Z,46.08
2023-11-25T06:16:02.911Z,46.89
2023-11-25T06:17:02.909Z,59.94
2023-11-25T06:18:02.939Z,60.59
2023-11-25T06:19:02.864Z,58.49
2023-11-25T06:20:02.854Z,54.30
2023-11-25T06:21:02.856Z,59.46
2023-11-25T06:22:02.827Z,48.18
2023-11-25T06:23:02.820Z,61.71
2023-11-25T06:24:02.815Z,60.75
2023-11-25T06:25:02.813Z,65.10
2023-11-25T06:26:02.815Z,60.42
2023-11-25T06:27:02.789Z,61.39
2023-11-25T06:28:02.790Z,47.86
2023-11-25T06:29:02.760Z,61.71
2023-11-25T06:30:02.800Z,59.30
2023-11-25T06:31:02.737Z,47.05
2023-11-25T06:32:02.729Z,46.73
2023-11-25T06:33:02.783Z,59.78
2023-11-25T06:34:02.722Z,62.04
2023-11-25T06:35:02.850Z,48.02
2023-11-25T06:36:02.686Z,57.69
2023-11-25T06:37:02.697Z,60.75
2023-11-25T06:38:02.784Z,60.26
2023-11-25T06:39:02.697Z,58.97
2023-11-25T06:40:02.662Z,54.79
2023-11-25T06:41:02.638Z,50.76
2023-11-25T06:42:02.633Z,60.75
2023-11-25T06:43:02.633Z,60.91
2023-11-25T06:44:02.681Z,60.75
2023-11-25T06:45:02.606Z,63.81
2023-11-25T06:46:02.613Z,61.07
2023-11-25T06:47:02.645Z,60.75
2023-11-25T06:48:02.666Z,49.95
2023-11-25T06:49:02.561Z,61.39
2023-11-25T06:50:02.543Z,57.04
2023-11-25T06:51:02.527Z,57.20
2023-11-25T06:52:02.523Z,64.45
2023-11-25T06:53:02.580Z,56.40
2023-11-25T06:54:02.654Z,59.30
2023-11-25T06:55:02.498Z,63.97
2023-11-25T06:56:02.507Z,60.59
2023-11-25T06:57:02.469Z,61.23
2023-11-25T06:58:02.497Z,61.71
2023-11-25T06:59:02.462Z,46.25
2023-11-25T07:00:02.447Z,60.59
2023-11-25T07:01:02.505Z,62.84
2023-11-25T07:02:02.492Z,47.86
2023-11-25T07:03:02.441Z,62.20
2023-11-25T07:04:02.395Z,65.58
2023-11-25T07:05:02.420Z,63.65
2023-11-25T07:06:02.374Z,47.70
2023-11-25T07:07:02.393Z,61.71
2023-11-25T07:08:02.361Z,61.71
2023-11-25T07:09:02.340Z,64.13
2023-11-25T07:10:02.328Z,59.14
2023-11-25T07:11:02.323Z,60.10
2023-11-25T07:12:02.323Z,61.23
2023-11-25T07:13:02.317Z,62.84
2023-11-25T07:14:02.346Z,62.84
2023-11-25T07:15:02.274Z,64.13
2023-11-25T07:16:02.292Z,59.94
2023-11-25T07:17:02.360Z,65.90
2023-11-25T07:18:02.305Z,65.74
2023-11-25T07:19:02.235Z,60.59
2023-11-25T07:20:02.249Z,63.49
2023-11-25T07:21:02.239Z,61.23
2023-11-25T07:22:02.254Z,63.65
2023-11-25T07:23:02.198Z,60.75
2023-11-25T07:24:02.204Z,58.17
2023-11-25T07:25:02.222Z,59.62
2023-11-25T07:26:02.185Z,62.20
2023-11-25T07:27:02.165Z,60.75
2023-11-25T07:28:02.162Z,68.48
2023-11-25T07:29:02.129Z,76.05
2023-11-25T07:30:02.308Z,70.90
2023-11-25T07:31:02.192Z,68.16
2023-11-25T07:32:02.149Z,48.18
2023-11-25T07:33:02.120Z,61.71
2023-11-25T07:34:02.086Z,62.52
2023-11-25T07:35:02.086Z,62.04
2023-11-25T07:36:02.099Z,48.50
2023-11-25T07:37:02.072Z,63.00
2023-11-25T07:38:02.047Z,60.91
2023-11-25T07:39:02.026Z,60.91
2023-11-25T07:40:02.018Z,65.58
2023-11-25T07:41:02.092Z,61.23
2023-11-25T07:42:02.003Z,65.42
2023-11-25T07:43:01.995Z,60.75
2023-11-25T07:44:01.995Z,57.36
2023-11-25T07:45:01.994Z,60.75
2023-11-25T07:46:01.969Z,60.91
2023-11-25T07:47:02.033Z,61.23
2023-11-25T07:48:01.962Z,60.10
2023-11-25T07:49:01.926Z,60.75
2023-11-25T07:50:01.926Z,61.23
2023-11-25T07:51:01.908Z,61.55
2023-11-25T07:52:01.909Z,60.75
2023-11-25T07:53:01.894Z,61.39
2023-11-25T07:54:01.886Z,55.27
2023-11-25T07:55:01.879Z,59.62
2023-11-25T07:56:01.904Z,56.07
2023-11-25T07:57:01.845Z,57.69
2023-11-25T07:58:01.870Z,68.00
2023-11-25T07:59:03.059Z,57.69
2023-11-25T08:00:01.858Z,46.73
2023-11-25T08:01:01.824Z,62.04
2023-11-25T08:02:01.949Z,51.24
2023-11-25T08:03:01.869Z,61.07
2023-11-25T08:04:01.831Z,64.94
2023-11-25T08:05:01.821Z,65.10
2023-11-25T08:06:01.768Z,61.87
2023-11-25T08:07:01.739Z,47.70
2023-11-25T08:08:01.830Z,57.20
2023-11-25T08:09:01.736Z,59.30
2023-11-25T08:10:01.751Z,61.23
2023-11-25T08:11:01.709Z,61.71
2023-11-25T08:12:01.731Z,63.00
2023-11-25T08:13:01.722Z,64.78
2023-11-25T08:14:01.709Z,62.68
2023-11-25T08:15:01.659Z,59.94
2023-11-25T08:16:01.664Z,62.68
2023-11-25T08:17:01.653Z,59.14
2023-11-25T08:18:01.703Z,63.33
2023-11-25T08:19:01.646Z,64.45
2023-11-25T08:20:01.621Z,62.68
2023-11-25T08:21:01.597Z,59.78
2023-11-25T08:22:01.589Z,61.39
2023-11-25T08:23:01.640Z,61.39
2023-11-25T08:24:01.584Z,58.97
2023-11-25T08:25:01.570Z,61.23
2023-11-25T08:26:01.645Z,67.03
2023-11-25T08:27:01.545Z,63.00
2023-11-25T08:28:01.580Z,63.16
2023-11-25T08:29:01.547Z,66.06
2023-11-25T08:30:02.718Z,63.33
2023-11-25T08:31:02.713Z,60.10
2023-11-25T08:32:02.893Z,61.39
2023-11-25T08:33:02.715Z,64.61
2023-11-25T08:34:02.664Z,60.10
2023-11-25T08:35:02.665Z,64.45
2023-11-25T08:36:02.649Z,62.84
2023-11-25T08:37:02.674Z,61.55
2023-11-25T08:38:02.629Z,64.13
2023-11-25T08:39:02.680Z,59.30
2023-11-25T08:40:02.624Z,65.90
2023-11-25T08:41:02.734Z,69.61
2023-11-25T08:42:02.575Z,67.35
2023-11-25T08:43:02.618Z,54.95
2023-11-25T08:44:02.612Z,63.97
2023-11-25T08:45:02.555Z,61.87
2023-11-25T08:46:02.613Z,64.13
2023-11-25T08:47:03.621Z,64.13
2023-11-25T08:48:02.582Z,61.23
2023-11-25T08:49:02.521Z,48.02
2023-11-25T08:50:02.631Z,61.07
2023-11-25T08:51:04.173Z,60.26
2023-11-25T08:52:02.548Z,62.52
2023-11-25T08:53:02.524Z,63.00
2023-11-25T08:54:02.592Z,60.26
2023-11-25T08:55:02.499Z,61.07
2023-11-25T08:56:02.569Z,64.13
2023-11-25T08:57:02.528Z,62.52
2023-11-25T08:58:02.416Z,59.30
2023-11-25T08:59:06.645Z,61.71
2023-11-25T09:00:03.469Z,48.02
2023-11-25T09:01:02.428Z,56.56
2023-11-25T09:02:02.405Z,63.97
2023-11-25T09:03:02.482Z,62.52
2023-11-25T09:04:02.442Z,59.78
2023-11-25T09:05:09.275Z,59.30
2023-11-25T09:06:04.371Z,60.75
2023-11-25T09:07:02.372Z,64.29
2023-11-25T09:08:02.507Z,62.68
2023-11-25T09:09:02.361Z,64.45
2023-11-25T09:10:02.355Z,63.16
2023-11-25T09:11:02.437Z,62.68
2023-11-25T09:12:02.307Z,61.55
2023-11-25T09:13:02.269Z,61.71
2023-11-25T09:14:02.339Z,62.20
2023-11-25T09:15:02.265Z,62.36
2023-11-25T09:16:02.300Z,60.75
2023-11-25T09:17:02.275Z,61.55
2023-11-25T09:18:02.284Z,61.23
2023-11-25T09:19:02.204Z,61.23
2023-11-25T09:20:02.322Z,62.20
2023-11-25T09:21:02.210Z,60.26
2023-11-25T09:22:02.194Z,61.71
2023-11-25T09:23:02.189Z,65.10
2023-11-25T09:24:02.178Z,58.33
2023-11-25T09:25:02.136Z,62.52
2023-11-25T09:26:02.150Z,62.52
2023-11-25T09:27:02.159Z,60.75
2023-11-25T09:28:02.113Z,68.64
2023-11-25T09:29:02.176Z,61.55
2023-11-25T09:30:02.109Z,63.16
2023-11-25T09:31:02.081Z,61.39
2023-11-25T09:32:02.118Z,62.68
2023-11-25T09:33:02.142Z,63.00
2023-11-25T09:34:02.128Z,46.57
2023-11-25T09:35:02.068Z,60.91
2023-11-25T09:36:02.041Z,64.13
2023-11-25T09:37:02.073Z,64.29
2023-11-25T09:38:02.118Z,60.75
2023-11-25T09:39:02.010Z,62.52
2023-11-25T09:40:01.988Z,60.10
2023-11-25T09:41:02.069Z,62.20
2023-11-25T09:42:01.982Z,61.71
2023-11-25T09:43:01.948Z,68.16
2023-11-25T09:44:01.953Z,63.33
2023-11-25T09:45:01.944Z,61.23
2023-11-25T09:46:02.010Z,62.52
2023-11-25T09:47:02.007Z,62.52
2023-11-25T09:48:01.931Z,59.94
2023-11-25T09:49:01.901Z,60.75
2023-11-25T09:50:01.919Z,65.74
2023-11-25T09:51:01.894Z,67.84
2023-11-25T09:52:01.958Z,66.55
2023-11-25T09:53:02.604Z,63.16
2023-11-25T09:54:01.902Z,62.36
2023-11-25T09:55:01.956Z,62.52
2023-11-25T09:56:01.909Z,61.71
2023-11-25T09:57:01.836Z,63.00
2023-11-25T09:58:01.827Z,66.06
2023-11-25T09:59:01.819Z,64.61
2023-11-25T10:00:01.815Z,61.07
2023-11-25T10:01:01.799Z,49.95
2023-11-25T10:02:01.859Z,60.75
2023-11-25T10:03:01.915Z,55.91
2023-11-25T10:04:01.793Z,61.23
2023-11-25T10:05:01.761Z,66.55
2023-11-25T10:06:01.766Z,63.33
2023-11-25T10:07:01.737Z,65.58
2023-11-25T10:08:01.732Z,61.39
2023-11-25T10:09:01.701Z,64.61
2023-11-25T10:10:01.672Z,63.81
2023-11-25T10:11:01.694Z,65.10
2023-11-25T10:12:01.652Z,63.81
2023-11-25T10:13:01.705Z,59.62
2023-11-25T10:14:01.675Z,63.33
2023-11-25T10:15:01.679Z,60.59
2023-11-25T10:16:01.769Z,60.75
2023-11-25T10:17:01.708Z,62.36
2023-11-25T10:18:01.634Z,62.68
2023-11-25T10:19:01.733Z,60.91
2023-11-25T10:20:01.610Z,63.49
2023-11-25T10:21:01.620Z,63.00
2023-11-25T10:22:01.561Z,68.64
2023-11-25T10:23:01.588Z,62.36
2023-11-25T10:24:01.573Z,59.46
2023-11-25T10:25:01.572Z,61.55
2023-11-25T10:26:01.499Z,47.70
2023-11-25T10:27:01.533Z,63.00
2023-11-25T10:28:01.563Z,63.81
2023-11-25T10:29:01.529Z,63.81
2023-11-25T10:30:01.516Z,61.71
2023-11-25T10:31:01.475Z,60.26
2023-11-25T10:32:01.448Z,64.29
2023-11-25T10:33:01.502Z,63.16
2023-11-25T10:34:01.528Z,61.07
2023-11-25T10:35:01.477Z,58.33
2023-11-25T10:36:01.433Z,57.36
2023-11-25T10:37:01.482Z,62.36
2023-11-25T10:38:01.561Z,64.13
2023-11-25T10:39:01.440Z,63.33
2023-11-25T10:40:01.466Z,60.26
2023-11-25T10:41:01.435Z,54.14
2023-11-25T10:42:01.364Z,60.26
2023-11-25T10:43:01.381Z,66.71
2023-11-25T10:44:01.401Z,60.91
2023-11-25T10:45:01.324Z,64.29
2023-11-25T10:46:01.397Z,65.42
2023-11-25T10:47:01.401Z,60.75
2023-11-25T10:48:01.387Z,65.58
2023-11-25T10:49:01.301Z,62.36
2023-11-25T10:50:01.321Z,62.04
2023-11-25T10:51:01.287Z,58.81
2023-11-25T10:52:01.268Z,61.71
2023-11-25T10:53:01.343Z,61.39
2023-11-25T10:54:01.265Z,61.87
2023-11-25T10:55:01.259Z,55.75
2023-11-25T10:56:01.573Z,63.81
2023-11-25T10:57:01.258Z,59.46
2023-11-25T10:58:01.239Z,59.62
2023-11-25T10:59:01.330Z,62.68
2023-11-25T11:00:01.204Z,64.13
2023-11-25T11:01:01.303Z,62.52
2023-11-25T11:02:01.389Z,64.13
2023-11-25T11:03:01.225Z,61.07
2023-11-25T11:04:01.183Z,64.61
2023-11-25T11:05:01.139Z,65.58
2023-11-25T11:06:01.144Z,67.51
2023-11-25T11:07:01.747Z,60.75
2023-11-25T11:08:01.125Z,64.29
2023-11-25T11:09:01.109Z,63.81
2023-11-25T11:10:01.102Z,61.71
2023-11-25T11:11:01.159Z,63.00
2023-11-25T11:12:01.091Z,61.23
2023-11-25T11:13:01.063Z,68.16
2023-11-25T11:14:01.070Z,61.71
2023-11-25T11:15:01.039Z,62.68
2023-11-25T11:16:01.042Z,52.37
2023-11-25T11:17:01.042Z,66.71
2023-11-25T11:18:01.102Z,64.61
2023-11-25T11:19:01.109Z,60.75
2023-11-25T11:20:01.051Z,60.26
2023-11-25T11:21:01.041Z,63.00
2023-11-25T11:22:00.979Z,62.68
2023-11-25T11:23:00.977Z,49.47
2023-11-25T11:24:00.961Z,66.23
2023-11-25T11:25:00.989Z,56.72
2023-11-25T11:26:00.989Z,67.68
2023-11-25T11:27:00.937Z,60.75
2023-11-25T11:28:00.922Z,61.23
2023-11-25T11:29:00.915Z,59.46
2023-11-25T11:30:00.917Z,61.23
2023-11-25T11:31:00.890Z,50.92
2023-11-25T11:32:01.068Z,65.58
2023-11-25T11:33:00.924Z,63.00
2023-11-25T11:34:00.866Z,62.36
2023-11-25T11:35:00.915Z,63.81
2023-11-25T11:36:00.870Z,62.36
2023-11-25T11:37:00.829Z,65.26
2023-11-25T11:38:00.863Z,63.33
2023-11-25T11:39:00.860Z,68.00
2023-11-25T11:40:00.799Z,60.75
2023-11-25T11:41:00.887Z,59.14
2023-11-25T11:42:00.792Z,56.72
2023-11-25T11:43:00.808Z,64.29
2023-11-25T11:44:00.818Z,67.35
2023-11-25T11:45:00.833Z,61.07
2023-11-25T11:46:00.768Z,60.10
2023-11-25T11:47:00.769Z,59.94
2023-11-25T11:48:00.773Z,64.78
2023-11-25T11:49:00.739Z,61.71
2023-11-25T11:50:00.836Z,63.81
2023-11-25T11:51:00.699Z,61.07
2023-11-25T11:52:00.681Z,56.72
2023-11-25T11:53:00.928Z,58.17
2023-11-25T11:54:00.679Z,61.23
2023-11-25T11:55:00.655Z,63.81
2023-11-25T11:56:00.721Z,62.36
2023-11-25T11:57:00.665Z,53.82
2023-11-25T11:58:00.638Z,68.64
2023-11-25T11:59:00.698Z,67.03
2023-11-25T12:00:00.585Z,65.42
2023-11-25T12:01:00.580Z,64.94
2023-11-25T12:02:00.605Z,62.20
2023-11-25T12:03:00.621Z,62.20
2023-11-25T12:04:00.617Z,63.81
2023-11-25T12:05:00.907Z,64.29
2023-11-25T12:06:00.535Z,61.07
2023-11-25T12:07:00.550Z,66.06
2023-11-25T12:08:00.556Z,66.55
2023-11-25T12:09:00.535Z,56.40
2023-11-25T12:10:00.578Z,48.18
2023-11-25T12:11:00.531Z,63.49
2023-11-25T12:12:00.517Z,59.62
2023-11-25T12:13:00.504Z,66.55
2023-11-25T12:14:00.534Z,64.94
2023-11-25T12:15:00.454Z,61.87
2023-11-25T12:16:00.877Z,64.29
2023-11-25T12:17:00.521Z,66.39
2023-11-25T12:18:01.465Z,67.68
2023-11-25T12:19:00.403Z,63.65
2023-11-25T12:20:00.503Z,67.03
2023-11-25T12:21:00.420Z,61.23
2023-11-25T12:22:00.419Z,67.68
2023-11-25T12:23:00.393Z,68.64
2023-11-25T12:24:00.373Z,66.39
2023-11-25T12:25:00.331Z,61.87
2023-11-25T12:26:00.371Z,62.20
2023-11-25T12:27:00.340Z,66.55
2023-11-25T12:28:00.313Z,62.84
2023-11-25T12:29:00.332Z,67.03
2023-11-25T12:30:00.316Z,66.55
2023-11-25T12:31:00.296Z,61.55
2023-11-25T12:32:00.381Z,50.11
2023-11-25T12:33:00.301Z,53.33
2023-11-25T12:34:00.253Z,64.29
2023-11-25T12:35:00.340Z,61.71
2023-11-25T12:36:00.256Z,62.68
2023-11-25T12:37:00.220Z,67.19
2023-11-25T12:38:08.081Z,64.45
2023-11-25T12:39:02.207Z,61.71
2023-11-25T12:40:00.226Z,67.51
2023-11-25T12:41:01.204Z,67.68
2023-11-25T12:42:00.199Z,62.20
2023-11-25T12:43:00.151Z,63.49
2023-11-25T12:44:00.237Z,63.16
2023-11-25T12:45:00.198Z,63.81
2023-11-25T12:46:00.206Z,58.33
2023-11-25T12:47:00.311Z,64.61
2023-11-25T12:48:00.150Z,59.30
2023-11-25T12:49:05.993Z,64.29
2023-11-25T12:50:01.171Z,65.26
2023-11-25T12:51:00.118Z,62.20
2023-11-25T12:52:00.110Z,60.42
2023-11-25T12:53:00.105Z,63.81
2023-11-25T12:54:00.065Z,59.94
2023-11-25T12:55:00.018Z,63.33
2023-11-25T12:56:00.115Z,52.53
2023-11-25T12:56:59.988Z,61.87
2023-11-25T12:58:00.024Z,62.04
2023-11-25T12:59:00.073Z,48.50
2023-11-25T12:59:59.998Z,64.78
2023-11-25T13:01:00.008Z,53.98
2023-11-25T13:02:00.047Z,66.71
2023-11-25T13:03:00.199Z,58.17
2023-11-25T13:04:00.008Z,64.29
2023-11-25T13:05:00.050Z,63.33
2023-11-25T13:05:59.952Z,61.23
2023-11-25T13:06:59.928Z,68.96
2023-11-25T13:08:00.081Z,63.97
2023-11-25T13:08:59.922Z,67.68
2023-11-25T13:10:00.101Z,65.58
2023-11-25T13:10:59.897Z,57.85
2023-11-25T13:11:59.969Z,65.10
2023-11-25T13:13:09.967Z,61.23
2023-11-25T13:15:24.517Z,66.55
2023-11-25T13:15:26.056Z,0.00
2023-11-25T13:16:27.999Z,60.91
2023-11-25T13:17:26.454Z,63.33
2023-11-25T13:18:26.166Z,63.00
2023-11-25T13:19:26.038Z,62.52
2023-11-25T13:20:26.181Z,61.71
2023-11-25T13:21:26.016Z,61.71
2023-11-25T13:22:26.098Z,79.92